Lakeland Linder Regional Airport
KLAL : now visible

Airfield :











YOU CAN JOIN US ON...

 
LOGIN :

Register | Disclaimer

   EN    FR    IT 

 









Legend :    VFR   Marginal VFR   IFR   Intensive IFR   Very Intensive IFR
Visi :
Ceiling :
>= 8 km
>= 3000ft
5 to 8 km
1000 to 3000 ft
1500m to 5 km
500 to 1000 ft
800 to 1500m
200 to 500 ft
< 800m
< 200 ft
Symbols :   Thunderstorms  Fog  Heavy snow  Heavy precipitations  Wind > 20 kt






- Airport Elevation : 142 ft


KLAL - Lakeland Linder Regional

CURRENT METAR :
  • 241750Z 10009KT 10SM BKN050 31/19 A3006

EXPIRED METARs :
  • 241650Z 11010KT 10SM BKN045 30/22 A3006

TAF KLAL
Valid from the 24 at 18:00 until the 25 at 18:00 UTC


241728Z 2418/2518 12010KT P6SM BKN040 BKN200
FM250200 12004KT P6SM SCT200
FM251300 12011KT P6SM SCT040 BKN200
KZMA FIR / North America



MET'MAP, your aeronautical weather chart ! - Copyright ORBIFLY December 2007 - Disclaimer

ORBIFLY MET'MAP TEAM :

Programming & Development : Alexandra Zaïnal
Original concept : Baudouin d'Aumeries
Technical & hardware support : Manuel Goepfert
Assistance : Marc-Olivier Méhu

Contact : metmap@orbifly.com




SOURCES & CREDITS :

   NOAA       Earth
Advisory